createdAt,value
2022-08-17T00:02:25.998Z,18.90
2022-08-17T00:04:54.904Z,18.90
2022-08-17T00:07:22.403Z,18.90
2022-08-17T00:09:49.618Z,18.90
2022-08-17T00:12:41.556Z,18.80
2022-08-17T00:15:05.331Z,18.80
2022-08-17T00:17:32.483Z,18.70
2022-08-17T00:20:00.158Z,18.80
2022-08-17T00:22:34.466Z,18.70
2022-08-17T00:25:07.978Z,18.70
2022-08-17T00:27:35.629Z,18.70
2022-08-17T00:30:04.307Z,18.70
2022-08-17T00:33:12.321Z,18.60
2022-08-17T00:35:27.814Z,18.60
2022-08-17T00:37:55.347Z,18.60
2022-08-17T00:40:24.577Z,18.50
2022-08-17T00:42:53.142Z,18.60
2022-08-17T00:45:20.508Z,18.50
2022-08-17T00:47:47.889Z,18.50
2022-08-17T00:50:16.363Z,18.50
2022-08-17T00:52:54.694Z,18.50
2022-08-17T00:55:22.572Z,18.50
2022-08-17T00:57:55.245Z,18.50
2022-08-17T01:00:29.244Z,18.40
2022-08-17T01:02:59.591Z,18.40
2022-08-17T01:05:28.162Z,18.40
2022-08-17T01:07:56.183Z,18.40
2022-08-17T01:10:58.657Z,18.40
2022-08-17T01:13:14.886Z,18.30
2022-08-17T01:15:46.428Z,18.30
2022-08-17T01:18:13.738Z,18.20
2022-08-17T01:20:52.662Z,18.30
2022-08-17T01:23:21.324Z,18.20
2022-08-17T01:25:54.212Z,18.20
2022-08-17T01:28:53.178Z,18.20
2022-08-17T01:31:08.958Z,18.20
2022-08-17T01:33:36.277Z,18.10
2022-08-17T01:36:04.594Z,18.10
2022-08-17T01:38:31.992Z,18.10
2022-08-17T01:41:05.543Z,18.00
2022-08-17T01:43:40.092Z,18.00
2022-08-17T01:46:07.352Z,18.00
2022-08-17T01:48:39.127Z,17.90
2022-08-17T01:51:07.099Z,17.90
2022-08-17T01:53:40.591Z,17.90
2022-08-17T01:56:12.673Z,17.90
2022-08-17T01:58:40.537Z,17.90
2022-08-17T02:01:09.743Z,17.80
2022-08-17T02:03:37.157Z,17.80
2022-08-17T02:06:05.404Z,17.80
2022-08-17T02:08:39.149Z,17.80
2022-08-17T02:11:22.690Z,17.80
2022-08-17T02:13:57.878Z,17.80
2022-08-17T02:16:37.153Z,17.80
2022-08-17T02:19:13.242Z,17.80
2022-08-17T02:21:40.539Z,17.80
2022-08-17T02:24:08.894Z,17.80
2022-08-17T02:26:36.144Z,17.80
2022-08-17T02:29:04.219Z,17.80
2022-08-17T02:31:31.528Z,17.70
2022-08-17T02:34:03.911Z,17.70
2022-08-17T02:36:35.854Z,17.70
2022-08-17T02:39:04.956Z,17.70
2022-08-17T02:41:32.252Z,17.70
2022-08-17T02:43:59.456Z,17.70
2022-08-17T02:46:26.685Z,17.60
2022-08-17T02:48:53.947Z,17.60
2022-08-17T02:51:21.119Z,17.60
2022-08-17T02:53:48.322Z,17.50
2022-08-17T02:56:15.499Z,17.50
2022-08-17T02:58:42.747Z,17.50
2022-08-17T03:01:10.081Z,17.40
2022-08-17T03:03:37.397Z,17.40
2022-08-17T03:06:04.918Z,17.40
2022-08-17T03:08:32.138Z,17.40
2022-08-17T03:10:59.623Z,17.40
2022-08-17T03:13:27.440Z,17.30
2022-08-17T03:15:54.618Z,17.30
2022-08-17T03:18:24.736Z,17.30
2022-08-17T03:20:54.503Z,17.30
2022-08-17T03:23:24.104Z,17.30
2022-08-17T03:25:52.816Z,17.30
2022-08-17T03:28:21.276Z,17.30
2022-08-17T03:30:48.624Z,17.30
2022-08-17T03:33:16.794Z,17.30
2022-08-17T03:35:44.033Z,17.30
2022-08-17T03:38:11.670Z,17.30
2022-08-17T03:40:58.865Z,17.30
2022-08-17T03:43:30.043Z,17.30
2022-08-17T03:46:34.594Z,17.20
2022-08-17T03:49:22.988Z,17.30
2022-08-17T03:52:08.681Z,17.20
2022-08-17T03:54:54.472Z,17.20
2022-08-17T03:57:21.684Z,17.20
2022-08-17T03:59:49.383Z,17.20
2022-08-17T04:02:24.172Z,17.20
2022-08-17T04:04:52.139Z,17.20
2022-08-17T04:07:20.690Z,17.20
2022-08-17T04:09:47.980Z,17.20
2022-08-17T04:12:16.653Z,17.20
2022-08-17T04:14:51.911Z,17.20
2022-08-17T04:17:26.810Z,17.20
2022-08-17T04:19:54.154Z,17.30
2022-08-17T04:22:32.023Z,17.20
2022-08-17T04:25:04.946Z,17.30
2022-08-17T04:27:32.192Z,17.30
2022-08-17T04:29:59.394Z,17.30
2022-08-17T04:33:00.649Z,17.30
2022-08-17T04:35:18.404Z,17.30
2022-08-17T04:37:45.588Z,17.30
2022-08-17T04:40:31.271Z,17.30
2022-08-17T04:43:07.149Z,17.30
2022-08-17T04:45:34.891Z,17.30
2022-08-17T04:48:02.130Z,17.30
2022-08-17T04:50:29.325Z,17.30
2022-08-17T04:52:57.050Z,17.30
2022-08-17T04:55:24.504Z,17.30
2022-08-17T04:57:51.683Z,17.30
2022-08-17T05:00:19.099Z,17.30
2022-08-17T05:02:50.352Z,17.30
2022-08-17T05:05:29.116Z,17.40
2022-08-17T05:07:59.449Z,17.50
2022-08-17T05:10:29.439Z,17.50
2022-08-17T05:13:01.035Z,17.60
2022-08-17T05:15:28.823Z,17.60
2022-08-17T05:18:00.576Z,17.70
2022-08-17T05:20:29.277Z,17.80
2022-08-17T05:22:59.566Z,17.90
2022-08-17T05:25:29.447Z,18.00
2022-08-17T05:27:59.975Z,18.00
2022-08-17T05:30:29.462Z,18.10
2022-08-17T05:32:58.851Z,18.20
2022-08-17T05:35:26.923Z,18.20
2022-08-17T05:37:54.366Z,18.30
2022-08-17T05:40:24.007Z,18.30
2022-08-17T05:42:51.555Z,18.30
2022-08-17T05:45:54.916Z,18.40
2022-08-17T05:48:07.994Z,18.50
2022-08-17T05:50:44.960Z,18.50
2022-08-17T05:53:31.234Z,18.50
2022-08-17T05:56:50.692Z,18.50
2022-08-17T05:59:35.128Z,18.60
2022-08-17T06:02:25.667Z,18.70
2022-08-17T06:05:11.136Z,18.80
2022-08-17T06:08:20.592Z,18.80
2022-08-17T06:10:54.306Z,18.80
2022-08-17T06:13:57.303Z,18.80
2022-08-17T06:16:34.778Z,18.90
2022-08-17T06:19:16.132Z,18.90
2022-08-17T06:21:46.308Z,19.00
2022-08-17T06:24:39.579Z,19.00
2022-08-17T06:27:26.657Z,19.10
2022-08-17T06:29:58.393Z,19.30
2022-08-17T06:32:25.656Z,19.40
2022-08-17T06:34:53.225Z,19.60
2022-08-17T06:37:44.484Z,19.70
2022-08-17T06:40:33.314Z,19.80
2022-08-17T06:43:24.305Z,19.90
2022-08-17T06:45:57.639Z,20.00
2022-08-17T06:48:28.909Z,20.20
2022-08-17T06:51:03.454Z,20.30
2022-08-17T06:53:44.340Z,20.40
2022-08-17T06:56:53.927Z,20.50
2022-08-17T06:59:55.044Z,20.50
2022-08-17T07:02:52.831Z,20.50
2022-08-17T07:05:22.513Z,20.50
2022-08-17T07:08:18.469Z,20.60
2022-08-17T07:10:50.849Z,20.60
2022-08-17T07:13:43.195Z,20.80
2022-08-17T07:16:27.453Z,20.90
2022-08-17T07:18:56.303Z,21.00
2022-08-17T07:21:40.934Z,21.00
2022-08-17T07:24:30.392Z,21.00
2022-08-17T07:27:33.718Z,21.20
2022-08-17T07:30:10.926Z,21.30
2022-08-17T07:32:53.525Z,21.50
2022-08-17T07:35:37.567Z,21.60
2022-08-17T07:38:25.330Z,21.70
2022-08-17T07:41:04.436Z,21.80
2022-08-17T07:43:37.550Z,21.90
2022-08-17T07:46:30.190Z,21.90
2022-08-17T07:49:07.847Z,22.10
2022-08-17T07:51:40.695Z,22.10
2022-08-17T07:54:22.915Z,22.20
2022-08-17T07:56:50.102Z,22.20
2022-08-17T07:59:23.104Z,22.30
2022-08-17T08:02:07.978Z,22.40
2022-08-17T08:07:35.198Z,22.60
2022-08-17T08:10:05.249Z,22.80
2022-08-17T08:12:40.978Z,22.90
2022-08-17T08:15:25.575Z,22.90
2022-08-17T08:17:55.313Z,22.90
2022-08-17T08:20:37.921Z,23.00
2022-08-17T08:23:26.577Z,23.10
2022-08-17T08:25:58.582Z,23.10
2022-08-17T08:28:37.280Z,23.20
2022-08-17T08:31:30.622Z,23.20
2022-08-17T08:35:00.735Z,23.40
2022-08-17T08:37:20.649Z,23.60
2022-08-17T08:40:08.300Z,23.70
2022-08-17T08:42:53.113Z,23.70
2022-08-17T08:45:28.367Z,23.80
2022-08-17T08:48:55.717Z,23.80
2022-08-17T08:51:41.897Z,23.90
2022-08-17T08:54:38.619Z,24.00
2022-08-17T08:57:30.827Z,24.00
2022-08-17T09:00:14.992Z,24.00
2022-08-17T09:03:37.619Z,24.10
2022-08-17T09:06:38.776Z,24.20
2022-08-17T09:09:27.625Z,24.20
2022-08-17T09:12:04.207Z,24.30
2022-08-17T09:14:46.922Z,24.40
2022-08-17T09:17:16.404Z,24.50
2022-08-17T09:19:49.813Z,24.60
2022-08-17T09:22:33.835Z,24.60
2022-08-17T09:25:10.836Z,24.80
2022-08-17T09:28:09.954Z,24.90
2022-08-17T09:30:51.023Z,24.90
2022-08-17T09:33:23.022Z,25.00
2022-08-17T09:36:10.638Z,25.10
2022-08-17T09:38:59.167Z,25.30
2022-08-17T09:41:49.202Z,25.40
2022-08-17T09:44:28.991Z,25.40
2022-08-17T09:47:01.160Z,25.30
2022-08-17T09:49:47.031Z,25.20
2022-08-17T09:52:21.733Z,25.40
2022-08-17T09:54:50.779Z,25.40
2022-08-17T09:57:30.521Z,25.50
2022-08-17T10:00:09.644Z,25.60
2022-08-17T10:02:54.417Z,25.60
2022-08-17T10:05:22.713Z,25.70
2022-08-17T10:08:09.188Z,25.90
2022-08-17T10:10:56.343Z,26.00
2022-08-17T10:13:36.071Z,26.20
2022-08-17T10:16:09.270Z,26.30
2022-08-17T10:19:20.323Z,26.40
2022-08-17T10:22:32.454Z,26.50
2022-08-17T10:25:23.894Z,26.60
2022-08-17T10:27:57.377Z,26.70
2022-08-17T10:30:27.821Z,26.60
2022-08-17T10:33:00.302Z,26.70
2022-08-17T10:35:57.087Z,26.70
2022-08-17T10:38:42.470Z,26.70
2022-08-17T10:41:29.467Z,26.90
2022-08-17T10:44:39.319Z,27.00
2022-08-17T10:47:24.002Z,27.10
2022-08-17T10:49:53.980Z,27.10
2022-08-17T10:52:26.175Z,27.10
2022-08-17T10:54:59.263Z,27.00
2022-08-17T10:57:29.603Z,27.00
2022-08-17T10:59:57.925Z,27.10
2022-08-17T11:02:27.914Z,27.30
2022-08-17T11:05:00.218Z,27.50
2022-08-17T11:08:08.197Z,27.60
2022-08-17T11:11:08.139Z,27.70
2022-08-17T11:14:08.542Z,27.80
2022-08-17T11:16:39.077Z,27.90
2022-08-17T11:19:12.493Z,28.00
2022-08-17T11:21:54.743Z,28.20
2022-08-17T11:24:43.389Z,28.20
2022-08-17T11:27:31.236Z,28.30
2022-08-17T11:30:02.212Z,28.30
2022-08-17T11:32:38.895Z,28.40
2022-08-17T11:35:21.337Z,28.40
2022-08-17T11:38:16.119Z,28.50
2022-08-17T11:41:02.997Z,28.60
2022-08-17T11:44:03.921Z,28.70
2022-08-17T11:47:30.643Z,28.90
2022-08-17T11:50:38.621Z,28.90
2022-08-17T11:53:06.052Z,29.00
2022-08-17T11:55:38.237Z,29.00
2022-08-17T11:58:29.775Z,28.90
2022-08-17T12:01:06.161Z,28.80
2022-08-17T12:03:33.622Z,28.70
2022-08-17T12:06:05.266Z,28.80
2022-08-17T12:08:33.854Z,28.80
2022-08-17T12:11:10.727Z,28.90
2022-08-17T12:13:49.093Z,29.00
2022-08-17T12:16:17.446Z,29.10
2022-08-17T12:18:58.740Z,29.10
2022-08-17T12:21:48.603Z,29.20
2022-08-17T12:24:25.165Z,29.20
2022-08-17T12:26:58.154Z,29.40
2022-08-17T12:29:35.863Z,29.40
2022-08-17T12:32:06.908Z,29.40
2022-08-17T12:34:35.948Z,29.40
2022-08-17T12:37:06.855Z,29.50
2022-08-17T12:39:34.362Z,29.50
2022-08-17T12:42:02.827Z,29.60
2022-08-17T12:44:35.180Z,29.60
2022-08-17T12:47:21.894Z,29.60
2022-08-17T12:49:54.325Z,29.70
2022-08-17T12:52:24.958Z,29.70
2022-08-17T12:55:11.762Z,29.70
2022-08-17T12:57:38.898Z,29.70
2022-08-17T13:00:20.526Z,29.70
2022-08-17T13:02:49.833Z,29.70
2022-08-17T13:05:28.600Z,29.80
2022-08-17T13:07:57.143Z,29.80
2022-08-17T13:10:32.439Z,29.90
2022-08-17T13:13:06.002Z,29.90
2022-08-17T13:15:38.067Z,29.90
2022-08-17T13:18:38.788Z,29.90
2022-08-17T13:21:07.695Z,30.00
2022-08-17T13:23:35.915Z,30.20
2022-08-17T13:26:06.236Z,30.20
2022-08-17T13:28:36.377Z,30.10
2022-08-17T13:31:26.180Z,30.10
2022-08-17T13:34:12.489Z,30.00
2022-08-17T13:36:40.187Z,30.00
2022-08-17T13:39:16.145Z,30.00
2022-08-17T13:41:43.377Z,30.00
2022-08-17T13:44:29.301Z,29.90
2022-08-17T13:46:57.197Z,29.80
2022-08-17T13:49:24.854Z,29.80
2022-08-17T13:52:14.068Z,29.70
2022-08-17T13:54:50.585Z,29.80
2022-08-17T13:57:22.836Z,29.90
2022-08-17T13:59:53.678Z,29.90
2022-08-17T14:02:23.196Z,30.00
2022-08-17T14:04:55.008Z,30.10
2022-08-17T14:07:28.474Z,30.20
2022-08-17T14:10:03.571Z,30.20
2022-08-17T14:12:31.904Z,30.20
2022-08-17T14:14:59.414Z,30.10
2022-08-17T14:17:28.843Z,30.20
2022-08-17T14:19:56.087Z,30.20
2022-08-17T14:22:33.887Z,30.30
2022-08-17T14:25:04.210Z,30.30
2022-08-17T14:27:43.587Z,30.30
2022-08-17T14:30:29.691Z,30.30
2022-08-17T14:32:59.264Z,30.30
2022-08-17T14:35:28.035Z,30.30
2022-08-17T14:37:55.759Z,30.30
2022-08-17T14:40:24.835Z,30.30
2022-08-17T14:42:53.021Z,30.20
2022-08-17T14:45:32.075Z,30.20
2022-08-17T14:48:03.859Z,30.20
2022-08-17T14:50:31.838Z,30.20
2022-08-17T14:53:01.419Z,30.20
2022-08-17T14:55:29.701Z,30.10
2022-08-17T14:57:56.952Z,30.20
2022-08-17T15:00:24.330Z,30.10
2022-08-17T15:02:53.757Z,30.10
2022-08-17T15:05:25.706Z,30.00
2022-08-17T15:07:55.949Z,30.00
2022-08-17T15:10:25.779Z,30.00
2022-08-17T15:12:53.213Z,29.90
2022-08-17T15:15:20.441Z,29.90
2022-08-17T15:17:47.606Z,29.90
2022-08-17T15:20:17.343Z,29.90
2022-08-17T15:22:45.114Z,29.90
2022-08-17T15:25:12.498Z,29.90
2022-08-17T15:27:40.180Z,29.90
2022-08-17T15:30:08.908Z,29.90
2022-08-17T15:32:38.107Z,29.80
2022-08-17T15:35:06.285Z,29.70
2022-08-17T15:37:33.523Z,29.60
2022-08-17T15:40:01.127Z,29.70
2022-08-17T15:42:29.228Z,29.70
2022-08-17T15:44:56.581Z,29.80
2022-08-17T15:47:24.252Z,29.80
2022-08-17T15:49:53.575Z,29.80
2022-08-17T15:52:27.886Z,29.80
2022-08-17T15:54:59.807Z,29.80
2022-08-17T15:57:27.282Z,29.70
2022-08-17T15:59:58.985Z,29.70
2022-08-17T16:03:46.253Z,29.70
2022-08-17T16:05:24.707Z,29.60
2022-08-17T16:07:52.555Z,29.50
2022-08-17T16:10:20.980Z,29.40
2022-08-17T16:12:49.521Z,29.40
2022-08-17T16:15:17.601Z,29.30
2022-08-17T16:17:45.282Z,29.30
2022-08-17T16:20:20.421Z,29.30
2022-08-17T16:22:49.515Z,29.20
2022-08-17T16:25:22.439Z,29.20
2022-08-17T16:27:53.805Z,29.10
2022-08-17T16:30:23.028Z,29.10
2022-08-17T16:32:51.914Z,29.00
2022-08-17T16:35:22.086Z,29.00
2022-08-17T16:37:49.770Z,29.00
2022-08-17T16:40:17.643Z,28.90
2022-08-17T16:42:45.271Z,28.90
2022-08-17T16:45:23.507Z,28.90
2022-08-17T16:47:51.268Z,28.90
2022-08-17T16:50:20.967Z,28.90
2022-08-17T16:52:48.951Z,28.80
2022-08-17T16:55:18.315Z,28.80
2022-08-17T16:57:50.053Z,28.70
2022-08-17T17:00:18.160Z,28.70
2022-08-17T17:02:47.170Z,28.70
2022-08-17T17:05:32.636Z,28.60
2022-08-17T17:08:09.745Z,28.50
2022-08-17T17:10:44.883Z,28.50
2022-08-17T17:13:34.013Z,28.50
2022-08-17T17:16:15.784Z,28.40
2022-08-17T17:19:09.085Z,28.40
2022-08-17T17:21:47.747Z,28.40
2022-08-17T17:24:37.174Z,28.30
2022-08-17T17:27:20.977Z,28.30
2022-08-17T17:29:59.804Z,28.20
2022-08-17T17:32:37.946Z,28.20
2022-08-17T17:35:11.894Z,28.20
2022-08-17T17:37:39.283Z,28.10
2022-08-17T17:40:33.102Z,28.10
2022-08-17T17:43:14.529Z,28.00
2022-08-17T17:45:50.552Z,28.00
2022-08-17T17:48:17.984Z,27.90
2022-08-17T17:51:04.200Z,27.90
2022-08-17T17:53:49.028Z,27.90
2022-08-17T17:56:44.301Z,27.80
2022-08-17T17:59:26.555Z,27.80
2022-08-17T18:02:38.610Z,27.70
2022-08-17T18:05:26.880Z,27.70
2022-08-17T18:08:32.415Z,27.60
2022-08-17T18:11:07.282Z,27.60
2022-08-17T18:14:26.863Z,27.40
2022-08-17T18:16:55.763Z,27.40
2022-08-17T18:19:25.357Z,27.40
2022-08-17T18:22:01.932Z,27.30
2022-08-17T18:24:34.501Z,27.20
2022-08-17T18:27:02.727Z,27.20
2022-08-17T18:29:46.624Z,27.10
2022-08-17T18:32:26.054Z,27.10
2022-08-17T18:35:02.064Z,27.00
2022-08-17T18:37:44.939Z,26.90
2022-08-17T18:40:19.303Z,26.90
2022-08-17T18:43:26.178Z,26.90
2022-08-17T18:45:56.964Z,26.80
2022-08-17T18:48:32.975Z,26.70
2022-08-17T18:51:39.911Z,26.60
2022-08-17T18:54:20.665Z,26.50
2022-08-17T18:56:58.755Z,26.50
2022-08-17T18:59:38.705Z,26.40
2022-08-17T19:02:20.642Z,26.30
2022-08-17T19:05:10.710Z,26.30
2022-08-17T19:07:40.349Z,26.20
2022-08-17T19:10:28.658Z,26.10
2022-08-17T19:13:11.329Z,26.00
2022-08-17T19:16:14.136Z,26.00
2022-08-17T19:18:40.536Z,25.90
2022-08-17T19:21:16.675Z,25.90
2022-08-17T19:23:55.477Z,25.80
2022-08-17T19:26:54.284Z,25.70
2022-08-17T19:29:34.811Z,25.70
2022-08-17T19:32:02.093Z,25.70
2022-08-17T19:34:34.053Z,25.60
2022-08-17T19:37:38.534Z,25.60
2022-08-17T19:40:51.590Z,25.50
2022-08-17T19:43:30.750Z,25.50
2022-08-17T19:46:16.439Z,25.40
2022-08-17T19:48:55.697Z,25.40
2022-08-17T19:51:46.418Z,25.30
2022-08-17T19:54:42.890Z,25.30
2022-08-17T19:57:16.143Z,25.20
2022-08-17T20:00:00.592Z,25.20
2022-08-17T20:02:33.082Z,25.10
2022-08-17T20:05:03.626Z,25.10
2022-08-17T20:07:45.591Z,25.10
2022-08-17T20:10:26.746Z,25.10
2022-08-17T20:12:53.960Z,25.10
2022-08-17T20:15:27.730Z,25.10
2022-08-17T20:17:55.382Z,25.10
2022-08-17T20:20:47.142Z,25.10
2022-08-17T20:23:39.170Z,25.10
2022-08-17T20:26:19.395Z,25.00
2022-08-17T20:29:36.860Z,25.00
2022-08-17T20:32:11.492Z,25.00
2022-08-17T20:34:39.713Z,25.00
2022-08-17T20:37:24.282Z,25.00
2022-08-17T20:39:52.452Z,24.90
2022-08-17T20:42:22.663Z,24.90
2022-08-17T20:44:57.544Z,24.90
2022-08-17T20:47:27.633Z,24.90
2022-08-17T20:49:57.786Z,24.90
2022-08-17T20:52:48.518Z,24.90
2022-08-17T20:55:34.176Z,24.90
2022-08-17T20:58:17.158Z,24.90
2022-08-17T21:00:56.541Z,24.90
2022-08-17T21:03:24.217Z,24.90
2022-08-17T21:06:00.198Z,24.90
2022-08-17T21:08:34.582Z,24.90
2022-08-17T21:12:02.499Z,24.90
2022-08-17T21:14:57.921Z,24.90
2022-08-17T21:17:46.871Z,24.90
2022-08-17T21:20:27.576Z,24.80
2022-08-17T21:23:12.397Z,24.80
2022-08-17T21:26:20.939Z,24.80
2022-08-17T21:29:32.315Z,24.70
2022-08-17T21:32:06.186Z,24.70
2022-08-17T21:34:43.423Z,24.70
2022-08-17T21:37:23.387Z,24.70
2022-08-17T21:39:51.766Z,24.60
2022-08-17T21:42:24.507Z,24.60
2022-08-17T21:44:52.078Z,24.60
2022-08-17T21:47:24.585Z,24.60
2022-08-17T21:49:52.850Z,24.60
2022-08-17T21:52:22.688Z,24.50
2022-08-17T21:55:00.230Z,24.50
2022-08-17T21:57:27.683Z,24.50
2022-08-17T22:00:02.057Z,24.50
2022-08-17T22:02:36.061Z,24.50
2022-08-17T22:05:13.194Z,24.40
2022-08-17T22:07:40.457Z,24.40
2022-08-17T22:10:26.492Z,24.40
2022-08-17T22:13:03.878Z,24.40
2022-08-17T22:15:31.091Z,24.40
2022-08-17T22:18:03.077Z,24.30
2022-08-17T22:20:30.234Z,24.30
2022-08-17T22:23:19.020Z,24.30
2022-08-17T22:26:03.990Z,24.30
2022-08-17T22:28:40.502Z,24.20
2022-08-17T22:31:10.121Z,23.90
2022-08-17T22:33:51.590Z,23.70
2022-08-17T22:36:29.522Z,23.30
2022-08-17T22:39:22.545Z,22.90
2022-08-17T22:41:57.072Z,22.80
2022-08-17T22:44:37.797Z,22.60
2022-08-17T22:47:14.233Z,22.50
2022-08-17T22:49:56.652Z,22.30
2022-08-17T22:52:32.160Z,22.00
2022-08-17T22:55:20.670Z,21.90
2022-08-17T22:58:06.347Z,21.80
2022-08-17T23:00:37.820Z,21.70
2022-08-17T23:03:17.790Z,21.60
2022-08-17T23:06:09.531Z,21.60
2022-08-17T23:08:50.069Z,21.50
2022-08-17T23:11:17.221Z,21.40
2022-08-17T23:13:44.416Z,21.30
2022-08-17T23:16:11.615Z,21.20
2022-08-17T23:18:38.775Z,21.10
2022-08-17T23:21:07.590Z,21.10
2022-08-17T23:23:35.420Z,21.10
2022-08-17T23:26:02.597Z,21.10
2022-08-17T23:28:29.768Z,21.10
2022-08-17T23:30:56.937Z,21.00
2022-08-17T23:33:30.495Z,21.00
2022-08-17T23:35:58.748Z,21.00
2022-08-17T23:38:29.175Z,20.90
2022-08-17T23:40:56.363Z,20.80
2022-08-17T23:43:25.608Z,20.80
2022-08-17T23:45:57.302Z,20.80
2022-08-17T23:48:27.806Z,20.80
2022-08-17T23:51:04.204Z,20.70
2022-08-17T23:53:33.967Z,20.80
2022-08-17T23:56:01.575Z,20.70
2022-08-17T23:58:38.394Z,20.70
